createdAt,value
2019-04-01T00:01:44.033Z,21.83
2019-04-01T00:04:13.531Z,21.33
2019-04-01T00:06:42.876Z,21.70
2019-04-01T00:09:12.206Z,20.43
2019-04-01T00:11:41.583Z,20.10
2019-04-01T00:14:10.931Z,20.10
2019-04-01T00:16:40.302Z,18.60
2019-04-01T00:19:09.669Z,18.60
2019-04-01T00:21:39.029Z,19.47
2019-04-01T00:24:08.383Z,18.40
2019-04-01T00:26:37.741Z,18.37
2019-04-01T00:29:07.107Z,19.07
2019-04-01T00:31:36.435Z,19.47
2019-04-01T00:34:05.800Z,20.07
2019-04-01T00:36:35.121Z,19.17
2019-04-01T00:39:06.624Z,18.70
2019-04-01T00:41:41.782Z,17.03
2019-04-01T00:44:12.799Z,18.03
2019-04-01T00:46:42.126Z,15.93
2019-04-01T00:49:11.507Z,18.80
2019-04-01T00:51:40.818Z,19.07
2019-04-01T00:54:10.221Z,18.80
2019-04-01T00:56:39.555Z,19.70
2019-04-01T00:59:08.915Z,18.57
2019-04-01T01:01:38.273Z,19.73
2019-04-01T01:04:07.637Z,19.83
2019-04-01T01:06:36.997Z,19.90
2019-04-01T01:09:06.884Z,19.13
2019-04-01T01:11:36.268Z,18.87
2019-04-01T01:14:05.733Z,19.23
2019-04-01T01:16:35.083Z,18.30
2019-04-01T01:19:04.554Z,18.43
2019-04-01T01:21:34.781Z,17.47
2019-04-01T01:24:04.208Z,18.67
2019-04-01T01:26:33.543Z,19.00
2019-04-01T01:29:02.897Z,18.50
2019-04-01T01:31:32.288Z,19.43
2019-04-01T01:34:01.638Z,19.20
2019-04-01T01:36:31.065Z,19.77
2019-04-01T01:39:00.434Z,19.83
2019-04-01T01:41:29.801Z,19.50
2019-04-01T01:43:59.251Z,18.50
2019-04-01T01:46:28.642Z,18.73
2019-04-01T01:48:58.036Z,19.90
2019-04-01T01:51:27.444Z,20.17
2019-04-01T01:53:56.758Z,22.50
2019-04-01T01:56:26.126Z,19.20
2019-04-01T01:58:55.479Z,21.47
2019-04-01T02:01:24.835Z,22.77
2019-04-01T02:03:54.245Z,25.30
2019-04-01T02:06:23.627Z,25.27
2019-04-01T02:08:53.004Z,28.70
2019-04-01T02:11:22.440Z,28.13
2019-04-01T02:13:51.755Z,27.70
2019-04-01T02:16:21.126Z,30.37
2019-04-01T02:18:50.480Z,30.17
2019-04-01T02:21:19.839Z,31.20
2019-04-01T02:23:49.197Z,28.97
2019-04-01T02:26:18.579Z,27.80
2019-04-01T02:28:48.025Z,27.23
2019-04-01T02:31:17.375Z,27.37
2019-04-01T02:33:46.774Z,27.17
2019-04-01T02:36:16.159Z,27.47
2019-04-01T02:38:45.573Z,28.23
2019-04-01T02:41:14.928Z,26.37
2019-04-01T02:43:44.286Z,26.80
2019-04-01T02:46:13.661Z,26.93
2019-04-01T02:48:43.078Z,26.53
2019-04-01T02:51:12.393Z,27.73
2019-04-01T02:53:41.804Z,26.50
2019-04-01T02:56:11.178Z,29.50
2019-04-01T02:58:40.559Z,28.13
2019-04-01T03:01:09.912Z,25.83
2019-04-01T03:03:39.247Z,27.53
2019-04-01T03:06:08.609Z,25.03
2019-04-01T03:08:37.960Z,24.37
2019-04-01T03:11:10.361Z,22.77
2019-04-01T03:13:38.469Z,23.80
2019-04-01T03:16:07.836Z,23.50
2019-04-01T03:18:37.197Z,27.77
2019-04-01T03:21:06.598Z,23.30
2019-04-01T03:23:35.946Z,23.40
2019-04-01T03:26:05.300Z,22.97
2019-04-01T03:28:34.657Z,24.37
2019-04-01T03:31:04.086Z,22.37
2019-04-01T03:33:33.461Z,22.43
2019-04-01T03:36:02.825Z,24.20
2019-04-01T03:38:32.209Z,25.73
2019-04-01T03:41:01.543Z,22.30
2019-04-01T03:43:30.910Z,22.40
2019-04-01T03:46:00.515Z,22.77
2019-04-01T03:48:29.816Z,23.43
2019-04-01T03:50:59.233Z,22.50
2019-04-01T03:53:28.592Z,21.17
2019-04-01T03:55:57.938Z,21.87
2019-04-01T03:58:27.307Z,22.50
2019-04-01T04:00:56.711Z,21.13
2019-04-01T04:03:26.063Z,21.57
2019-04-01T04:05:55.427Z,21.70
2019-04-01T04:08:24.766Z,20.27
2019-04-01T04:10:54.107Z,18.50
2019-04-01T04:13:23.535Z,18.80
2019-04-01T04:15:57.520Z,18.53
2019-04-01T04:18:24.113Z,17.60
2019-04-01T04:20:53.962Z,16.80
2019-04-01T04:23:23.328Z,16.43
2019-04-01T04:25:52.653Z,15.63
2019-04-01T04:28:22.045Z,16.83
2019-04-01T04:30:51.419Z,16.73
2019-04-01T04:33:20.777Z,16.40
2019-04-01T04:35:50.212Z,17.63
2019-04-01T04:38:19.544Z,17.53
2019-04-01T04:40:48.912Z,17.00
2019-04-01T04:43:18.304Z,17.60
2019-04-01T04:45:47.630Z,16.00
2019-04-01T04:48:16.990Z,16.47
2019-04-01T04:50:46.359Z,16.43
2019-04-01T04:53:15.705Z,16.47
2019-04-01T04:55:45.046Z,16.80
2019-04-01T04:58:14.417Z,15.87
2019-04-01T05:00:43.762Z,16.13
2019-04-01T05:03:13.157Z,15.60
2019-04-01T05:05:42.665Z,16.83
2019-04-01T05:08:12.030Z,16.27
2019-04-01T05:10:41.390Z,16.00
2019-04-01T05:13:10.747Z,15.87
2019-04-01T05:15:40.107Z,17.33
2019-04-01T05:18:09.550Z,15.17
2019-04-01T05:20:41.131Z,14.67
2019-04-01T05:23:12.613Z,16.00
2019-04-01T05:25:42.477Z,15.17
2019-04-01T05:28:14.509Z,15.77
2019-04-01T05:30:46.402Z,14.73
2019-04-01T05:33:18.520Z,15.10
2019-04-01T05:35:47.837Z,15.20
2019-04-01T05:38:18.095Z,14.63
2019-04-01T05:40:47.464Z,15.07
2019-04-01T05:43:16.852Z,14.57
2019-04-01T05:45:46.679Z,13.90
2019-04-01T05:48:17.387Z,13.87
2019-04-01T05:50:46.736Z,13.87
2019-04-01T05:53:16.103Z,14.03
2019-04-01T05:55:45.445Z,15.10
2019-04-01T05:58:14.823Z,15.27
2019-04-01T06:00:48.096Z,15.20
2019-04-01T06:03:17.459Z,15.70
2019-04-01T06:05:46.929Z,15.93
2019-04-01T06:08:17.376Z,14.87
2019-04-01T06:10:46.825Z,18.17
2019-04-01T06:13:16.591Z,15.87
2019-04-01T06:15:45.955Z,15.67
2019-04-01T06:18:15.321Z,24.13
2019-04-01T06:20:44.785Z,16.60
2019-04-01T06:23:14.171Z,15.73
2019-04-01T06:25:43.539Z,16.17
2019-04-01T06:28:12.860Z,17.30
2019-04-01T06:30:42.176Z,16.83
2019-04-01T06:33:11.645Z,16.77
2019-04-01T06:35:41.038Z,17.27
2019-04-01T06:38:10.529Z,17.80
2019-04-01T06:40:39.899Z,16.67
2019-04-01T06:43:09.525Z,16.03
2019-04-01T06:45:38.943Z,17.80
2019-04-01T06:48:08.376Z,17.63
2019-04-01T06:50:37.733Z,18.13
2019-04-01T06:53:07.121Z,17.93
2019-04-01T06:55:36.810Z,18.63
2019-04-01T06:58:06.265Z,19.30
2019-04-01T07:00:37.110Z,18.13
2019-04-01T07:03:06.491Z,17.80
2019-04-01T07:05:36.303Z,18.53
2019-04-01T07:08:05.706Z,18.03
2019-04-01T07:10:35.237Z,19.50
2019-04-01T07:13:04.626Z,18.33
2019-04-01T07:15:34.027Z,18.60
2019-04-01T07:18:03.396Z,19.37
2019-04-01T07:20:32.817Z,19.57
2019-04-01T07:23:02.218Z,18.90
2019-04-01T07:25:34.116Z,19.13
2019-04-01T07:28:02.758Z,18.17
2019-04-01T07:30:32.207Z,19.37
2019-04-01T07:33:01.558Z,18.53
2019-04-01T07:35:31.801Z,19.77
2019-04-01T07:38:01.150Z,18.67
2019-04-01T07:40:30.506Z,17.80
2019-04-01T07:43:00.159Z,16.97
2019-04-01T07:45:29.682Z,17.53
2019-04-01T07:47:59.143Z,15.63
2019-04-01T07:50:28.594Z,15.37
2019-04-01T07:52:57.984Z,15.17
2019-04-01T07:55:27.361Z,14.67
2019-04-01T07:57:59.572Z,14.50
2019-04-01T08:00:28.329Z,16.17
2019-04-01T08:02:57.820Z,17.50
2019-04-01T08:05:27.385Z,17.73
2019-04-01T08:07:57.262Z,16.90
2019-04-01T08:10:26.990Z,15.73
2019-04-01T08:12:56.578Z,15.87
2019-04-01T08:15:25.929Z,16.13
2019-04-01T08:17:55.294Z,14.57
2019-04-01T08:20:24.683Z,13.53
2019-04-01T08:22:54.085Z,10.33
2019-04-01T08:25:23.520Z,12.30
2019-04-01T08:27:52.993Z,12.70
2019-04-01T08:30:22.388Z,13.50
2019-04-01T08:32:52.941Z,14.17
2019-04-01T08:35:22.367Z,13.00
2019-04-01T08:37:51.975Z,12.97
2019-04-01T08:40:21.399Z,14.13
2019-04-01T08:42:51.169Z,15.47
2019-04-01T08:45:20.560Z,13.53
2019-04-01T08:47:49.937Z,12.40
2019-04-01T08:50:19.722Z,13.00
2019-04-01T08:52:49.134Z,13.43
2019-04-01T08:55:18.517Z,12.90
2019-04-01T08:57:47.921Z,12.33
2019-04-01T09:00:17.522Z,12.47
2019-04-01T09:02:46.970Z,12.90
2019-04-01T09:05:16.304Z,13.90
2019-04-01T09:07:45.780Z,11.53
2019-04-01T09:10:15.210Z,12.50
2019-04-01T09:12:45.194Z,13.17
2019-04-01T09:15:15.080Z,12.67
2019-04-01T09:17:44.446Z,12.97
2019-04-01T09:20:13.935Z,13.17
2019-04-01T09:22:43.296Z,12.20
2019-04-01T09:25:12.644Z,12.07
2019-04-01T09:27:42.012Z,11.57
2019-04-01T09:30:11.866Z,10.27
2019-04-01T09:32:41.226Z,11.53
2019-04-01T09:35:10.986Z,11.33
2019-04-01T09:37:40.444Z,11.47
2019-04-01T09:40:10.211Z,11.37
2019-04-01T09:42:39.724Z,12.03
2019-04-01T09:45:09.674Z,12.90
2019-04-01T09:47:39.059Z,12.03
2019-04-01T09:50:08.665Z,13.33
2019-04-01T09:52:38.130Z,12.53
2019-04-01T09:55:07.835Z,12.00
2019-04-01T09:57:37.199Z,20.97
2019-04-01T10:00:07.245Z,10.67
2019-04-01T10:02:36.739Z,11.07
2019-04-01T10:05:06.598Z,10.67
2019-04-01T10:07:36.106Z,10.23
2019-04-01T10:10:06.199Z,8.40
2019-04-01T10:12:35.551Z,7.73
2019-04-01T10:15:05.366Z,8.00
2019-04-01T10:17:34.713Z,7.23
2019-04-01T10:20:04.368Z,8.50
2019-04-01T10:22:33.743Z,7.73
2019-04-01T10:25:03.200Z,8.23
2019-04-01T10:27:32.578Z,9.00
2019-04-01T10:30:01.968Z,8.20
2019-04-01T10:32:31.354Z,7.67
2019-04-01T10:35:00.743Z,8.40
2019-04-01T10:37:30.147Z,8.33
2019-04-01T10:40:00.428Z,7.27
2019-04-01T10:42:30.194Z,7.90
2019-04-01T10:44:59.585Z,8.08
2019-04-01T10:47:29.008Z,8.20
2019-04-01T10:49:58.628Z,7.70
2019-04-01T10:52:28.952Z,7.95
2019-04-01T10:54:58.299Z,7.55
2019-04-01T10:57:28.014Z,7.75
2019-04-01T10:59:57.580Z,8.03
2019-04-01T11:02:26.924Z,7.80
2019-04-01T11:04:57.454Z,7.33
2019-04-01T11:07:26.905Z,7.72
2019-04-01T11:09:56.230Z,6.83
2019-04-01T11:12:25.570Z,6.70
2019-04-01T11:14:54.955Z,7.15
2019-04-01T11:17:24.352Z,7.12
2019-04-01T11:19:53.755Z,7.10
2019-04-01T11:22:23.065Z,6.97
2019-04-01T11:24:52.519Z,6.97
2019-04-01T11:27:21.846Z,7.22
2019-04-01T11:29:51.205Z,7.25
2019-04-01T11:32:20.562Z,6.78
2019-04-01T11:34:49.894Z,7.22
2019-04-01T11:37:19.381Z,6.65
2019-04-01T11:39:48.737Z,13.25
2019-04-01T11:42:18.133Z,7.05
2019-04-01T11:44:47.578Z,6.87
2019-04-01T11:47:16.998Z,6.62
2019-04-01T11:49:46.701Z,7.08
2019-04-01T11:52:16.125Z,7.47
2019-04-01T11:54:45.481Z,7.10
2019-04-01T11:57:14.831Z,7.17
2019-04-01T11:59:44.188Z,7.35
2019-04-01T12:02:13.568Z,7.45
2019-04-01T12:04:42.944Z,7.42
2019-04-01T12:07:12.270Z,7.62
2019-04-01T12:09:41.679Z,7.78
2019-04-01T12:12:22.702Z,8.18
2019-04-01T12:14:42.156Z,8.60
2019-04-01T12:17:11.526Z,9.28
2019-04-01T12:19:40.960Z,7.33
2019-04-01T12:22:11.192Z,8.08
2019-04-01T12:24:40.674Z,8.30
2019-04-01T12:27:10.645Z,8.20
2019-04-01T12:29:40.072Z,7.15
2019-04-01T12:32:09.410Z,7.12
2019-04-01T12:34:42.057Z,7.67
2019-04-01T12:37:09.899Z,7.25
2019-04-01T12:39:39.341Z,7.67
2019-04-01T12:42:09.530Z,8.00
2019-04-01T12:44:39.029Z,7.55
2019-04-01T12:47:08.412Z,7.50
2019-04-01T12:49:37.789Z,6.67
2019-04-01T12:52:07.177Z,7.40
2019-04-01T12:54:36.543Z,8.48
2019-04-01T12:57:05.936Z,9.48
2019-04-01T12:59:35.293Z,7.60
2019-04-01T13:02:04.644Z,7.00
2019-04-01T13:04:36.104Z,7.28
2019-04-01T13:07:06.255Z,7.35
2019-04-01T13:09:35.703Z,7.17
2019-04-01T13:12:05.260Z,7.05
2019-04-01T13:14:40.093Z,7.55
2019-04-01T13:17:08.574Z,6.40
2019-04-01T13:19:38.126Z,7.15
2019-04-01T13:22:09.060Z,6.80
2019-04-01T13:24:39.110Z,6.90
2019-04-01T13:27:09.274Z,7.20
2019-04-01T13:29:39.023Z,7.05
2019-04-01T13:32:08.389Z,7.10
2019-04-01T13:34:37.850Z,6.60
2019-04-01T13:37:07.385Z,6.40
2019-04-01T13:39:36.713Z,6.58
2019-04-01T13:42:06.119Z,6.60
2019-04-01T13:44:37.256Z,7.00
2019-04-01T13:47:06.600Z,6.80
2019-04-01T13:49:36.002Z,6.22
2019-04-01T13:52:06.154Z,6.85
2019-04-01T13:54:35.495Z,6.97
2019-04-01T13:57:04.887Z,8.55
2019-04-01T13:59:48.040Z,7.92
2019-04-01T14:02:05.355Z,6.30
2019-04-01T14:04:34.734Z,6.90
2019-04-01T14:07:04.292Z,6.50
2019-04-01T14:09:33.721Z,6.90
2019-04-01T14:12:03.110Z,7.12
2019-04-01T14:14:32.445Z,6.62
2019-04-01T14:17:01.847Z,6.42
2019-04-01T14:19:31.288Z,6.65
2019-04-01T14:22:00.648Z,7.12
2019-04-01T14:24:30.014Z,6.47
2019-04-01T14:26:59.410Z,6.92
2019-04-01T14:29:28.731Z,6.87
2019-04-01T14:31:58.119Z,6.85
2019-04-01T14:34:27.541Z,6.83
2019-04-01T14:36:56.868Z,7.53
2019-04-01T14:39:26.218Z,7.17
2019-04-01T14:41:55.702Z,6.90
2019-04-01T14:44:25.087Z,11.55
2019-04-01T14:46:54.457Z,9.28
2019-04-01T14:49:23.862Z,10.60
2019-04-01T14:51:53.196Z,8.10
2019-04-01T14:54:22.591Z,8.08
2019-04-01T14:56:52.016Z,8.18
2019-04-01T14:59:21.376Z,8.05
2019-04-01T15:01:50.708Z,8.85
2019-04-01T15:04:20.149Z,8.45
2019-04-01T15:06:49.550Z,7.92
2019-04-01T15:09:19.354Z,8.25
2019-04-01T15:11:48.827Z,7.90
2019-04-01T15:14:18.210Z,8.38
2019-04-01T15:16:47.602Z,8.30
2019-04-01T15:19:16.951Z,8.75
2019-04-01T15:21:47.471Z,8.10
2019-04-01T15:24:17.020Z,8.43
2019-04-01T15:26:46.399Z,8.38
2019-04-01T15:29:15.774Z,8.03
2019-04-01T15:31:45.416Z,9.65
2019-04-01T15:34:14.734Z,8.98
2019-04-01T15:36:44.158Z,9.30
2019-04-01T15:39:15.383Z,12.90
2019-04-01T15:41:45.442Z,9.50
2019-04-01T15:44:15.138Z,10.48
2019-04-01T15:46:44.567Z,9.45
2019-04-01T15:49:13.984Z,13.03
2019-04-01T15:51:43.361Z,9.93
2019-04-01T15:54:13.154Z,10.08
2019-04-01T15:56:42.544Z,9.43
2019-04-01T15:59:11.877Z,9.43
2019-04-01T16:01:41.209Z,10.27
2019-04-01T16:04:10.669Z,9.65
2019-04-01T16:06:40.035Z,9.47
2019-04-01T16:09:09.618Z,9.17
2019-04-01T16:11:39.044Z,9.98
2019-04-01T16:14:08.449Z,9.27
2019-04-01T16:16:36.636Z,9.33
2019-04-01T16:19:06.033Z,9.40
2019-04-01T16:21:35.429Z,9.87
2019-04-01T16:24:04.959Z,8.83
2019-04-01T16:26:34.341Z,10.10
2019-04-01T16:29:03.984Z,9.63
2019-04-01T16:31:33.394Z,9.50
2019-04-01T16:34:02.775Z,9.80
2019-04-01T16:36:32.232Z,10.40
2019-04-01T16:39:01.606Z,9.00
2019-04-01T16:41:31.026Z,10.40
2019-04-01T16:44:00.459Z,10.27
2019-04-01T16:46:29.981Z,9.70
2019-04-01T16:48:59.479Z,9.70
2019-04-01T16:51:29.001Z,9.60
2019-04-01T16:53:58.452Z,9.03
2019-04-01T16:56:27.959Z,9.43
2019-04-01T16:58:57.426Z,14.33
2019-04-01T17:01:26.867Z,18.80
2019-04-01T17:03:56.339Z,9.07
2019-04-01T17:06:26.134Z,11.63
2019-04-01T17:08:55.479Z,9.63
2019-04-01T17:11:24.925Z,10.17
2019-04-01T17:13:55.677Z,8.70
2019-04-01T17:16:25.856Z,9.23
2019-04-01T17:18:57.681Z,10.20
2019-04-01T17:21:26.492Z,9.90
2019-04-01T17:23:55.884Z,10.43
2019-04-01T17:26:25.250Z,11.80
2019-04-01T17:28:57.449Z,11.73
2019-04-01T17:31:26.891Z,13.20
2019-04-01T17:33:56.262Z,11.97
2019-04-01T17:36:25.701Z,10.43
2019-04-01T17:38:55.127Z,10.37
2019-04-01T17:41:24.545Z,10.70
2019-04-01T17:43:53.956Z,10.70
2019-04-01T17:46:26.272Z,11.07
2019-04-01T17:48:54.559Z,11.03
2019-04-01T17:51:23.955Z,10.10
2019-04-01T17:53:53.464Z,11.63
2019-04-01T17:56:22.938Z,11.97
2019-04-01T17:58:52.377Z,10.33
2019-04-01T18:01:21.773Z,10.70
2019-04-01T18:03:51.185Z,10.43
2019-04-01T18:06:20.945Z,11.00
2019-04-01T18:08:50.333Z,14.17
2019-04-01T18:11:19.816Z,12.43
2019-04-01T18:13:50.142Z,12.50
2019-04-01T18:16:20.317Z,12.67
2019-04-01T18:18:49.703Z,14.30
2019-04-01T18:21:19.090Z,12.60
2019-04-01T18:23:48.485Z,12.00
2019-04-01T18:26:18.281Z,12.90
2019-04-01T18:28:47.828Z,12.60
2019-04-01T18:31:17.292Z,13.83
2019-04-01T18:33:56.029Z,14.83
2019-04-01T18:36:18.797Z,13.07
2019-04-01T18:38:48.245Z,11.90
2019-04-01T18:41:17.729Z,12.67
2019-04-01T18:43:47.340Z,13.10
2019-04-01T18:46:16.805Z,13.70
2019-04-01T18:48:46.200Z,13.33
2019-04-01T18:51:15.646Z,13.87
2019-04-01T18:53:45.057Z,12.97
2019-04-01T18:56:14.471Z,12.73
2019-04-01T18:58:43.839Z,13.00
2019-04-01T19:01:13.215Z,12.37
2019-04-01T19:03:43.068Z,10.80
2019-04-01T19:06:12.826Z,12.17
2019-04-01T19:08:42.232Z,11.33
2019-04-01T19:11:11.677Z,11.67
2019-04-01T19:13:42.250Z,11.80
2019-04-01T19:16:14.419Z,12.43
2019-04-01T19:18:43.275Z,12.57
2019-04-01T19:21:12.727Z,11.77
2019-04-01T19:23:42.175Z,11.47
2019-04-01T19:26:11.597Z,11.90
2019-04-01T19:28:41.087Z,11.90
2019-04-01T19:31:11.999Z,10.30
2019-04-01T19:33:41.481Z,11.00
2019-04-01T19:36:10.882Z,10.80
2019-04-01T19:38:40.340Z,11.57
2019-04-01T19:41:09.950Z,11.77
2019-04-01T19:43:39.295Z,11.93
2019-04-01T19:46:09.440Z,9.87
2019-04-01T19:48:39.208Z,10.70
2019-04-01T19:51:08.673Z,10.57
2019-04-01T19:53:38.711Z,10.73
2019-04-01T19:56:08.130Z,10.23
2019-04-01T19:58:37.574Z,10.20
2019-04-01T20:01:06.991Z,10.87
2019-04-01T20:03:36.414Z,9.93
2019-04-01T20:06:07.412Z,11.03
2019-04-01T20:08:37.227Z,10.40
2019-04-01T20:11:06.641Z,10.20
2019-04-01T20:13:36.157Z,9.67
2019-04-01T20:16:05.577Z,10.33
2019-04-01T20:18:35.322Z,10.97
2019-04-01T20:21:05.850Z,10.27
2019-04-01T20:23:35.237Z,9.73
2019-04-01T20:26:05.069Z,9.90
2019-04-01T20:28:34.439Z,10.00
2019-04-01T20:31:03.818Z,9.63
2019-04-01T20:33:33.227Z,9.63
2019-04-01T20:36:02.756Z,9.03
2019-04-01T20:38:32.240Z,10.10
2019-04-01T20:41:01.672Z,9.07
2019-04-01T20:43:31.065Z,9.87
2019-04-01T20:46:00.866Z,9.73
2019-04-01T20:48:30.307Z,10.10
2019-04-01T20:50:59.641Z,9.93
2019-04-01T20:53:29.041Z,10.17
2019-04-01T20:56:00.778Z,10.20
2019-04-01T20:58:30.135Z,9.63
2019-04-01T21:00:59.524Z,9.83
2019-04-01T21:03:30.171Z,10.10
2019-04-01T21:05:59.639Z,9.80
2019-04-01T21:08:29.074Z,9.80
2019-04-01T21:10:58.480Z,9.67
2019-04-01T21:13:27.939Z,9.10
2019-04-01T21:15:58.228Z,9.27
2019-04-01T21:18:28.530Z,9.10
2019-04-01T21:20:57.934Z,9.30
2019-04-01T21:23:27.326Z,8.67
2019-04-01T21:25:56.737Z,8.53
2019-04-01T21:28:26.118Z,8.80
2019-04-01T21:30:55.476Z,8.30
2019-04-01T21:33:24.870Z,8.60
2019-04-01T21:35:54.353Z,8.10
2019-04-01T21:38:23.682Z,8.63
2019-04-01T21:40:53.052Z,7.53
2019-04-01T21:43:22.406Z,9.07
2019-04-01T21:45:51.825Z,7.53
2019-04-01T21:48:21.233Z,7.77
2019-04-01T21:50:50.642Z,7.97
2019-04-01T21:53:20.020Z,6.70
2019-04-01T21:55:49.405Z,7.60
2019-04-01T21:58:19.138Z,6.93
2019-04-01T22:00:52.240Z,6.73
2019-04-01T22:03:21.631Z,7.00
2019-04-01T22:05:50.976Z,7.40
2019-04-01T22:08:20.568Z,6.83
2019-04-01T22:10:49.961Z,7.33
2019-04-01T22:13:19.300Z,6.90
2019-04-01T22:15:50.068Z,7.27
2019-04-01T22:18:19.889Z,7.20
2019-04-01T22:20:49.305Z,6.80
2019-04-01T22:23:18.823Z,7.07
2019-04-01T22:25:48.256Z,7.30
2019-04-01T22:28:17.611Z,6.90
2019-04-01T22:30:47.044Z,7.23
2019-04-01T22:33:16.428Z,7.50
2019-04-01T22:35:45.848Z,6.53
2019-04-01T22:38:24.645Z,6.77
2019-04-01T22:40:46.251Z,7.07
2019-04-01T22:43:16.051Z,6.53
2019-04-01T22:45:45.412Z,6.40
2019-04-01T22:48:14.787Z,6.60
2019-04-01T22:50:44.198Z,6.33
2019-04-01T22:53:13.582Z,6.97
2019-04-01T22:55:42.959Z,6.40
2019-04-01T22:58:12.406Z,6.70
2019-04-01T23:00:41.842Z,6.60
2019-04-01T23:03:11.436Z,7.03
2019-04-01T23:05:41.252Z,6.83
2019-04-01T23:08:10.579Z,7.13
2019-04-01T23:10:39.937Z,7.20
2019-04-01T23:13:09.333Z,7.03
2019-04-01T23:15:38.653Z,6.87
2019-04-01T23:18:08.084Z,7.03
2019-04-01T23:20:37.490Z,7.17
2019-04-01T23:23:06.864Z,7.20
2019-04-01T23:25:36.298Z,7.00
2019-04-01T23:28:05.677Z,6.80
2019-04-01T23:30:35.061Z,6.87
2019-04-01T23:33:04.474Z,7.53
2019-04-01T23:35:33.836Z,7.50
2019-04-01T23:38:03.212Z,9.00
2019-04-01T23:40:32.881Z,8.27
2019-04-01T23:43:02.365Z,9.77
2019-04-01T23:45:31.707Z,8.80
2019-04-01T23:48:01.139Z,9.47
2019-04-01T23:50:30.536Z,8.50
2019-04-01T23:53:02.160Z,8.27
2019-04-01T23:55:31.528Z,8.43
2019-04-01T23:58:00.930Z,8.33
